createdAt,value
2018-11-22T12:17:40.894Z,12.70
2018-11-22T12:20:11.126Z,13.00
2018-11-22T12:22:40.693Z,13.20
2018-11-22T12:25:11.299Z,13.50
2018-11-22T12:27:40.180Z,13.70
2018-11-22T12:30:12.903Z,13.90
2018-11-22T12:32:46.774Z,14.10
2018-11-22T12:35:20.729Z,14.20
2018-11-22T12:37:54.715Z,14.30
2018-11-22T12:40:23.181Z,14.30
2018-11-22T12:42:51.713Z,14.50
2018-11-22T12:45:20.128Z,14.60
2018-11-22T12:47:48.622Z,14.70
2018-11-22T12:50:17.113Z,14.80
2018-11-22T12:52:45.800Z,14.90
2018-11-22T12:55:14.191Z,14.90
2018-11-22T12:57:50.071Z,15.00
2018-11-22T13:00:19.080Z,15.10
2018-11-22T13:02:47.605Z,15.20
2018-11-22T13:05:17.195Z,15.20
2018-11-22T13:07:45.718Z,15.30
2018-11-22T13:10:15.388Z,15.30
2018-11-22T13:12:45.109Z,15.30
2018-11-22T13:15:14.910Z,15.20
2018-11-22T13:17:43.387Z,15.20
2018-11-22T13:20:13.019Z,15.20
2018-11-22T13:22:41.552Z,15.20
2018-11-22T13:25:16.712Z,15.10
2018-11-22T13:27:45.838Z,15.20
2018-11-22T13:30:18.303Z,15.20
2018-11-22T13:32:47.554Z,15.20
2018-11-22T13:35:17.463Z,15.20
2018-11-22T13:37:47.259Z,15.20
2018-11-22T13:40:16.441Z,15.20
2018-11-22T13:42:45.858Z,15.20
2018-11-22T13:45:16.793Z,15.20
2018-11-22T13:47:46.465Z,15.20
2018-11-22T13:50:18.934Z,15.10
2018-11-22T13:52:49.235Z,15.10
2018-11-22T13:55:17.735Z,15.00
2018-11-22T13:57:46.203Z,15.00
2018-11-22T14:00:17.325Z,15.00
2018-11-22T14:02:46.896Z,14.90
2018-11-22T14:05:15.448Z,14.80
2018-11-22T14:07:43.037Z,14.70
2018-11-22T14:10:12.648Z,14.40
2018-11-22T14:12:41.344Z,14.10
2018-11-22T14:15:13.184Z,13.90
2018-11-22T14:17:42.150Z,13.80
2018-11-22T14:20:19.466Z,13.60
2018-11-22T14:22:48.340Z,13.40
2018-11-22T14:25:17.430Z,13.30
2018-11-22T14:27:46.231Z,13.10
2018-11-22T14:30:16.919Z,12.80
2018-11-22T14:32:46.054Z,12.60
2018-11-22T14:35:15.881Z,12.30
2018-11-22T14:37:44.604Z,12.20
2018-11-22T14:40:18.130Z,12.00
2018-11-22T14:42:47.208Z,11.80
2018-11-22T14:45:17.156Z,11.70
2018-11-22T14:47:47.030Z,11.60
2018-11-22T14:50:18.438Z,11.50
2018-11-22T14:52:49.426Z,11.30
2018-11-22T14:55:17.996Z,11.20
2018-11-22T14:57:46.426Z,11.10
2018-11-22T15:00:15.943Z,11.10
2018-11-22T15:02:45.818Z,11.00
2018-11-22T15:05:14.147Z,10.90
2018-11-22T15:07:43.379Z,10.90
2018-11-22T15:10:14.260Z,10.80
2018-11-22T15:12:44.137Z,10.70
2018-11-22T15:15:15.442Z,10.50
2018-11-22T15:17:43.250Z,10.40
2018-11-22T15:20:14.132Z,10.30
2018-11-22T15:22:43.295Z,10.30
2018-11-22T15:25:13.085Z,10.20
2018-11-22T15:27:42.281Z,10.10
2018-11-22T15:30:12.937Z,10.00
2018-11-22T15:32:40.612Z,9.90
2018-11-22T15:35:11.428Z,9.90
2018-11-22T15:37:40.310Z,9.80
2018-11-22T15:40:11.061Z,9.70
2018-11-22T15:42:39.737Z,9.60
2018-11-22T15:45:10.353Z,9.50
2018-11-22T15:47:38.847Z,9.40
2018-11-22T15:50:09.598Z,9.30
2018-11-22T15:52:38.387Z,9.20
2018-11-22T15:55:06.181Z,9.10
2018-11-22T15:57:34.845Z,9.10
2018-11-22T16:00:03.445Z,9.00
2018-11-22T16:02:31.949Z,8.90
2018-11-22T16:05:00.335Z,8.80
2018-11-22T16:07:27.959Z,8.80
2018-11-22T16:09:55.607Z,8.70
2018-11-22T16:12:24.203Z,8.60
2018-11-22T16:14:52.757Z,8.50
2018-11-22T16:17:21.359Z,8.40
2018-11-22T16:19:49.800Z,8.30
2018-11-22T16:22:18.245Z,8.20
2018-11-22T16:24:46.702Z,8.20
2018-11-22T16:27:15.327Z,8.20
2018-11-22T16:29:43.749Z,8.20
2018-11-22T16:32:12.293Z,8.30
2018-11-22T16:34:40.097Z,8.20
2018-11-22T16:37:08.488Z,8.10
2018-11-22T16:39:36.862Z,8.00
2018-11-22T16:42:05.400Z,8.00
2018-11-22T16:44:33.840Z,7.90
2018-11-22T16:47:02.313Z,7.80
2018-11-22T16:49:30.855Z,7.70
2018-11-22T16:51:59.274Z,7.80
2018-11-22T16:54:27.720Z,7.70
2018-11-22T16:56:56.148Z,7.60
2018-11-22T16:59:24.746Z,7.70
2018-11-22T17:01:53.339Z,7.70
2018-11-22T17:04:22.001Z,7.60
2018-11-22T17:06:50.451Z,7.60
2018-11-22T17:09:18.879Z,7.50
2018-11-22T17:11:47.342Z,7.40
2018-11-22T17:14:15.987Z,7.30
2018-11-22T17:16:44.509Z,7.20
2018-11-22T17:19:13.019Z,7.20
2018-11-22T17:21:41.495Z,7.10
2018-11-22T17:24:10.030Z,7.10
2018-11-22T17:26:38.470Z,7.10
2018-11-22T17:29:06.986Z,7.10
2018-11-22T17:31:35.536Z,7.10
2018-11-22T17:34:04.016Z,7.10
2018-11-22T17:36:32.947Z,7.10
2018-11-22T17:39:01.343Z,7.00
2018-11-22T17:41:30.486Z,7.00
2018-11-22T17:43:58.948Z,7.00
2018-11-22T17:46:27.550Z,6.90
2018-11-22T17:48:56.108Z,6.90
2018-11-22T17:51:24.604Z,6.90
2018-11-22T17:53:53.040Z,6.80
2018-11-22T17:56:21.768Z,6.80
2018-11-22T17:58:50.269Z,6.80
2018-11-22T18:01:18.818Z,6.70
2018-11-22T18:03:47.221Z,6.70
2018-11-22T18:06:15.728Z,6.60
2018-11-22T18:08:44.525Z,6.60
2018-11-22T18:11:13.055Z,6.60
2018-11-22T18:13:41.544Z,6.50
2018-11-22T18:16:10.338Z,6.50
2018-11-22T18:18:38.994Z,6.40
2018-11-22T18:21:07.754Z,6.40
2018-11-22T18:23:36.496Z,6.30
2018-11-22T18:26:05.213Z,6.30
2018-11-22T18:28:33.966Z,6.30
2018-11-22T18:31:02.399Z,6.20
2018-11-22T18:33:31.091Z,6.20
2018-11-22T18:35:59.713Z,6.20
2018-11-22T18:38:28.153Z,6.30
2018-11-22T18:40:56.808Z,6.40
2018-11-22T18:43:25.286Z,6.40
2018-11-22T18:45:53.916Z,6.50
2018-11-22T18:48:22.392Z,6.50
2018-11-22T18:50:50.959Z,6.50
2018-11-22T18:53:19.447Z,6.40
2018-11-22T18:55:47.958Z,6.30
2018-11-22T18:58:16.636Z,6.20
2018-11-22T19:00:46.366Z,6.20
2018-11-22T19:03:16.848Z,6.20
2018-11-22T19:05:45.335Z,6.20
2018-11-22T19:08:13.904Z,6.20
2018-11-22T19:10:43.233Z,6.20
2018-11-22T19:13:12.427Z,6.10
2018-11-22T19:15:42.437Z,6.10
2018-11-22T19:18:11.621Z,6.10
2018-11-22T19:20:41.675Z,6.00
2018-11-22T19:23:10.866Z,6.00
2018-11-22T19:25:39.333Z,6.10
2018-11-22T19:28:08.615Z,6.10
2018-11-22T19:30:38.742Z,6.10
2018-11-22T19:33:08.691Z,6.10
2018-11-22T19:35:39.134Z,6.10
2018-11-22T19:38:07.782Z,6.10
2018-11-22T19:40:37.602Z,6.10
2018-11-22T19:43:07.281Z,6.10
2018-11-22T19:45:37.555Z,6.10
2018-11-22T19:48:06.827Z,6.00
2018-11-22T19:50:35.902Z,6.00
2018-11-22T19:53:06.143Z,6.00
2018-11-22T19:55:35.773Z,6.00
2018-11-22T19:58:05.864Z,6.00
2018-11-22T20:00:34.556Z,5.90
2018-11-22T20:03:04.316Z,5.90
2018-11-22T20:05:34.396Z,5.90
2018-11-22T20:08:04.823Z,5.80
2018-11-22T20:10:35.006Z,5.90
2018-11-22T20:13:03.567Z,5.90
2018-11-22T20:15:32.477Z,6.00
2018-11-22T20:18:01.934Z,6.00
2018-11-22T20:20:30.588Z,6.00
2018-11-22T20:22:59.454Z,6.00
2018-11-22T20:25:28.071Z,5.90
2018-11-22T20:27:57.357Z,5.90
2018-11-22T20:30:27.594Z,5.80
2018-11-22T20:32:56.101Z,5.80
2018-11-22T20:35:24.755Z,5.70
2018-11-22T20:38:00.105Z,5.60
2018-11-22T20:40:29.092Z,5.60
2018-11-22T20:42:58.159Z,5.60
2018-11-22T20:45:27.516Z,5.70
2018-11-22T20:47:57.695Z,5.70
2018-11-22T20:50:27.128Z,5.70
2018-11-22T20:52:55.585Z,5.60
2018-11-22T20:55:26.512Z,5.60
2018-11-22T20:57:56.300Z,5.50
2018-11-22T21:00:26.359Z,5.50
2018-11-22T21:02:54.747Z,5.50
2018-11-22T21:05:23.941Z,5.40
2018-11-22T21:07:52.484Z,5.30
2018-11-22T21:10:25.167Z,5.30
2018-11-22T21:12:53.644Z,5.30
2018-11-22T21:15:24.608Z,5.30
2018-11-22T21:17:54.999Z,5.30
2018-11-22T21:20:25.401Z,5.30
2018-11-22T21:22:53.804Z,5.30
2018-11-22T21:25:22.683Z,5.30
2018-11-22T21:27:51.555Z,5.30
2018-11-22T21:30:25.193Z,5.30
2018-11-22T21:32:54.033Z,5.30
2018-11-22T21:35:22.539Z,5.30
2018-11-22T21:37:52.175Z,5.30
2018-11-22T21:40:21.452Z,5.30
2018-11-22T21:42:50.191Z,5.20
2018-11-22T21:45:20.272Z,5.20
2018-11-22T21:47:48.882Z,5.20
2018-11-22T21:50:18.467Z,5.20
2018-11-22T21:52:47.256Z,5.20
2018-11-22T21:55:17.161Z,5.30
2018-11-22T21:57:46.475Z,5.30
2018-11-22T22:00:23.675Z,5.20
2018-11-22T22:02:54.813Z,5.30
2018-11-22T22:05:23.511Z,5.20
2018-11-22T22:07:52.298Z,5.20
2018-11-22T22:10:20.887Z,5.20
2018-11-22T22:12:49.651Z,5.10
2018-11-22T22:15:19.978Z,5.10
2018-11-22T22:17:48.947Z,5.10
2018-11-22T22:20:19.974Z,5.00
2018-11-22T22:22:48.403Z,5.00
2018-11-22T22:25:18.815Z,4.90
2018-11-22T22:27:47.922Z,4.90
2018-11-22T22:30:18.956Z,4.90
2018-11-22T22:32:48.326Z,4.90
2018-11-22T22:35:16.951Z,4.90
2018-11-22T22:37:46.095Z,5.00
2018-11-22T22:40:17.219Z,5.00
2018-11-22T22:42:46.631Z,5.00
2018-11-22T22:45:16.051Z,5.00
2018-11-22T22:47:45.454Z,5.00
2018-11-22T22:50:15.881Z,5.00
2018-11-22T22:52:44.852Z,5.10
2018-11-22T22:55:13.694Z,5.10
2018-11-22T22:57:42.631Z,5.00
2018-11-22T23:00:21.472Z,5.00
2018-11-22T23:02:51.671Z,5.00
2018-11-22T23:05:20.598Z,5.00
2018-11-22T23:07:49.208Z,5.00
2018-11-22T23:10:18.286Z,4.90
2018-11-22T23:12:46.756Z,4.90
2018-11-22T23:15:16.149Z,4.90
2018-11-22T23:17:44.820Z,4.90
2018-11-22T23:20:16.520Z,4.90
2018-11-22T23:22:45.721Z,4.90
2018-11-22T23:25:14.912Z,4.80
2018-11-22T23:27:43.651Z,4.80
2018-11-22T23:30:16.614Z,4.70
2018-11-22T23:32:47.034Z,4.70
2018-11-22T23:35:16.287Z,4.60
2018-11-22T23:37:45.462Z,4.60
2018-11-22T23:40:15.215Z,4.50
2018-11-22T23:42:44.500Z,4.50
2018-11-22T23:45:14.393Z,4.40
2018-11-22T23:47:43.152Z,4.40
2018-11-22T23:50:14.237Z,4.40
2018-11-22T23:52:43.714Z,4.30
2018-11-22T23:55:12.170Z,4.30
2018-11-22T23:57:40.860Z,4.20
